createdAt,value
2018-09-17T00:01:18.205Z,78.34
2018-09-17T00:03:46.520Z,78.69
2018-09-17T00:06:14.858Z,78.77
2018-09-17T00:08:43.209Z,79.03
2018-09-17T00:11:11.659Z,78.81
2018-09-17T00:13:40.358Z,78.50
2018-09-17T00:16:08.646Z,79.11
2018-09-17T00:18:36.941Z,79.33
2018-09-17T00:21:05.272Z,79.44
2018-09-17T00:23:33.583Z,79.67
2018-09-17T00:26:02.136Z,79.87
2018-09-17T00:28:30.453Z,79.44
2018-09-17T00:30:58.681Z,79.70
2018-09-17T00:33:26.969Z,79.74
2018-09-17T00:35:55.281Z,79.51
2018-09-17T00:38:23.521Z,79.13
2018-09-17T00:40:51.780Z,79.94
2018-09-17T00:43:20.095Z,78.68
2018-09-17T00:45:48.360Z,79.65
2018-09-17T00:48:16.662Z,80.00
2018-09-17T00:50:45.801Z,80.18
2018-09-17T00:53:14.082Z,80.68
2018-09-17T00:55:42.417Z,80.21
2018-09-17T00:58:10.659Z,80.02
2018-09-17T01:00:38.967Z,80.06
2018-09-17T01:03:07.462Z,80.20
2018-09-17T01:05:35.930Z,79.93
2018-09-17T01:08:04.232Z,79.83
2018-09-17T01:10:32.525Z,80.16
2018-09-17T01:13:00.830Z,80.73
2018-09-17T01:15:29.113Z,80.83
2018-09-17T01:17:57.414Z,80.49
2018-09-17T01:20:25.801Z,80.35
2018-09-17T01:22:54.253Z,80.32
2018-09-17T01:25:22.549Z,80.17
2018-09-17T01:27:50.867Z,79.83
2018-09-17T01:30:19.217Z,80.40
2018-09-17T01:32:47.475Z,80.16
2018-09-17T01:35:15.782Z,79.89
2018-09-17T01:37:44.086Z,81.34
2018-09-17T01:40:12.376Z,80.67
2018-09-17T01:42:40.649Z,79.96
2018-09-17T01:45:09.027Z,80.22
2018-09-17T01:47:37.269Z,80.26
2018-09-17T01:50:05.821Z,80.13
2018-09-17T01:52:34.126Z,79.07
2018-09-17T01:55:02.429Z,79.19
2018-09-17T01:57:30.697Z,79.97
2018-09-17T01:59:59.003Z,80.03
2018-09-17T02:02:27.266Z,81.37
2018-09-17T02:04:55.589Z,82.00
2018-09-17T02:07:23.913Z,82.05
2018-09-17T02:09:52.198Z,82.37
2018-09-17T02:12:20.459Z,81.83
2018-09-17T02:14:48.721Z,81.26
2018-09-17T02:17:17.100Z,81.29
2018-09-17T02:19:45.390Z,81.08
2018-09-17T02:22:13.653Z,81.59
2018-09-17T02:24:42.014Z,81.14
2018-09-17T02:27:10.320Z,81.21
2018-09-17T02:29:38.658Z,80.98
2018-09-17T02:32:06.966Z,81.40
2018-09-17T02:34:35.353Z,81.23
2018-09-17T02:37:03.665Z,80.91
2018-09-17T02:39:31.945Z,81.39
2018-09-17T02:42:08.311Z,81.27
2018-09-17T02:44:38.261Z,81.03
2018-09-17T02:47:07.041Z,81.80
2018-09-17T02:49:35.856Z,81.53
2018-09-17T02:52:04.702Z,81.79
2018-09-17T02:54:33.268Z,81.14
2018-09-17T02:57:02.374Z,80.96
2018-09-17T02:59:31.288Z,83.92
2018-09-17T03:02:00.161Z,84.78
2018-09-17T03:04:29.102Z,84.32
2018-09-17T03:06:57.650Z,83.28
2018-09-17T03:09:26.405Z,82.83
2018-09-17T03:11:55.098Z,82.12
2018-09-17T03:14:29.981Z,81.44
2018-09-17T03:17:11.837Z,81.34
2018-09-17T03:19:41.305Z,82.21
2018-09-17T03:22:10.095Z,82.26
2018-09-17T03:24:38.556Z,81.03
2018-09-17T03:27:07.285Z,81.42
2018-09-17T03:29:35.689Z,81.99
2018-09-17T03:32:04.468Z,82.54
2018-09-17T03:34:33.015Z,82.32
2018-09-17T03:37:01.435Z,82.48
2018-09-17T03:39:29.930Z,81.88
2018-09-17T03:41:58.366Z,82.16
2018-09-17T03:44:26.686Z,82.48
2018-09-17T03:46:55.001Z,82.39
2018-09-17T03:49:23.338Z,82.31
2018-09-17T03:51:51.707Z,81.88
2018-09-17T03:54:19.981Z,81.71
2018-09-17T03:56:48.302Z,81.34
2018-09-17T03:59:16.726Z,82.18
2018-09-17T04:01:45.057Z,82.68
2018-09-17T04:04:13.407Z,81.98
2018-09-17T04:06:41.834Z,82.78
2018-09-17T04:09:10.215Z,82.16
2018-09-17T04:11:38.541Z,81.98
2018-09-17T04:14:08.189Z,81.71
2018-09-17T04:16:36.697Z,82.85
2018-09-17T04:19:05.019Z,83.59
2018-09-17T04:21:33.439Z,83.24
2018-09-17T04:24:01.832Z,82.88
2018-09-17T04:26:30.279Z,82.50
2018-09-17T04:28:58.742Z,82.71
2018-09-17T04:31:27.110Z,82.12
2018-09-17T04:33:56.550Z,81.58
2018-09-17T04:36:24.862Z,82.31
2018-09-17T04:38:53.356Z,81.98
2018-09-17T04:41:22.791Z,82.25
2018-09-17T04:43:51.105Z,82.63
2018-09-17T04:46:19.488Z,82.67
2018-09-17T04:48:47.912Z,82.77
2018-09-17T04:51:16.327Z,82.10
2018-09-17T04:53:44.573Z,82.79
2018-09-17T04:56:12.917Z,83.07
2018-09-17T04:58:41.225Z,83.21
2018-09-17T05:01:09.526Z,83.68
2018-09-17T05:03:37.832Z,83.66
2018-09-17T05:06:06.238Z,83.50
2018-09-17T05:08:34.537Z,83.10
2018-09-17T05:11:02.929Z,83.47
2018-09-17T05:13:31.486Z,82.83
2018-09-17T05:15:59.793Z,82.82
2018-09-17T05:18:28.315Z,82.89
2018-09-17T05:20:56.755Z,83.52
2018-09-17T05:23:25.275Z,83.15
2018-09-17T05:25:53.807Z,83.46
2018-09-17T05:28:22.862Z,82.66
2018-09-17T05:30:51.649Z,82.96
2018-09-17T05:35:55.744Z,82.58
2018-09-17T05:38:24.207Z,81.92
2018-09-17T05:40:52.582Z,82.04
2018-09-17T05:43:21.002Z,82.37
2018-09-17T05:45:49.327Z,82.18
2018-09-17T05:48:36.941Z,81.72
2018-09-17T05:51:18.004Z,82.31
2018-09-17T05:53:46.560Z,82.11
2018-09-17T05:56:17.202Z,81.30
2018-09-17T05:58:45.594Z,81.04
2018-09-17T06:01:14.014Z,80.83
2018-09-17T06:03:42.365Z,79.84
2018-09-17T06:06:17.349Z,80.16
2018-09-17T06:08:45.685Z,79.82
2018-09-17T06:11:14.026Z,79.29
2018-09-17T06:13:42.365Z,79.83
2018-09-17T06:16:11.294Z,79.34
2018-09-17T06:21:49.519Z,76.77
2018-09-17T06:24:18.733Z,77.05
2018-09-17T06:26:47.081Z,76.77
2018-09-17T06:29:15.464Z,75.87
2018-09-17T06:31:43.732Z,75.81
2018-09-17T06:34:12.050Z,74.63
2018-09-17T06:36:40.345Z,73.94
2018-09-17T06:39:09.308Z,75.08
2018-09-17T06:41:37.672Z,75.36
2018-09-17T06:44:06.082Z,75.64
2018-09-17T06:46:34.421Z,75.36
2018-09-17T06:49:02.789Z,75.37
2018-09-17T06:51:31.138Z,75.03
2018-09-17T06:53:59.502Z,74.75
2018-09-17T06:56:27.857Z,75.05
2018-09-17T06:58:56.288Z,75.00
2018-09-17T07:01:24.634Z,75.07
2018-09-17T07:03:52.951Z,74.79
2018-09-17T07:06:21.356Z,74.89
2018-09-17T07:08:49.698Z,74.89
2018-09-17T07:11:18.086Z,73.93
2018-09-17T07:13:46.374Z,73.93
2018-09-17T07:16:14.674Z,72.02
2018-09-17T07:18:43.003Z,70.35
2018-09-17T07:21:11.306Z,69.50
2018-09-17T07:23:39.627Z,69.17
2018-09-17T07:26:07.920Z,68.52
2018-09-17T07:28:36.253Z,67.75
2018-09-17T07:31:04.666Z,68.42
2018-09-17T07:33:33.002Z,68.26
2018-09-17T07:36:01.342Z,68.29
2018-09-17T07:38:29.772Z,67.75
2018-09-17T07:40:58.097Z,67.90
2018-09-17T07:43:26.490Z,67.56
2018-09-17T07:45:54.905Z,68.25
2018-09-17T07:48:23.231Z,67.23
2018-09-17T07:50:51.545Z,67.29
2018-09-17T07:53:20.041Z,67.59
2018-09-17T07:55:48.366Z,67.46
2018-09-17T07:58:16.717Z,66.95
2018-09-17T08:00:45.052Z,67.08
2018-09-17T08:03:13.398Z,66.65
2018-09-17T08:05:41.865Z,66.83
2018-09-17T08:08:10.181Z,65.92
2018-09-17T08:10:38.574Z,64.61
2018-09-17T08:13:06.914Z,63.98
2018-09-17T08:15:35.335Z,64.53
2018-09-17T08:18:03.683Z,63.41
2018-09-17T08:20:32.024Z,61.73
2018-09-17T08:23:00.343Z,61.95
2018-09-17T08:25:28.693Z,62.19
2018-09-17T08:27:57.000Z,62.40
2018-09-17T08:30:25.326Z,61.74
2018-09-17T08:32:53.620Z,60.67
2018-09-17T08:35:21.948Z,61.54
2018-09-17T08:37:50.303Z,60.25
2018-09-17T08:40:18.614Z,59.02
2018-09-17T08:42:46.920Z,59.67
2018-09-17T08:45:15.234Z,60.75
2018-09-17T08:47:43.525Z,60.05
2018-09-17T08:50:11.882Z,60.74
2018-09-17T08:52:40.204Z,58.56
2018-09-17T08:55:09.994Z,59.53
2018-09-17T08:57:40.386Z,58.02
2018-09-17T09:00:14.854Z,58.07
2018-09-17T09:02:45.393Z,58.11
2018-09-17T09:05:19.117Z,56.93
2018-09-17T09:07:51.454Z,57.10
2018-09-17T09:10:25.843Z,56.86
2018-09-17T09:12:59.838Z,56.92
2018-09-17T09:15:33.994Z,55.64
2018-09-17T09:18:02.353Z,55.89
2018-09-17T09:20:30.658Z,54.85
2018-09-17T09:22:59.016Z,54.53
2018-09-17T09:25:27.390Z,54.17
2018-09-17T09:27:55.727Z,53.27
2018-09-17T09:30:24.153Z,53.97
2018-09-17T09:32:52.658Z,53.77
2018-09-17T09:35:21.107Z,53.88
2018-09-17T09:37:49.428Z,52.49
2018-09-17T09:40:17.758Z,52.96
2018-09-17T09:42:46.109Z,53.66
2018-09-17T09:45:15.266Z,52.05
2018-09-17T09:47:43.676Z,51.27
2018-09-17T09:50:11.985Z,50.52
2018-09-17T09:52:40.389Z,50.69
2018-09-17T09:55:08.733Z,49.72
2018-09-17T09:57:37.043Z,49.61
2018-09-17T10:00:08.673Z,49.93
2018-09-17T10:02:42.354Z,49.37
2018-09-17T10:05:10.650Z,48.55
2018-09-17T10:07:38.984Z,48.71
2018-09-17T10:10:12.130Z,48.15
2018-09-17T10:12:45.656Z,49.10
2018-09-17T10:15:15.668Z,47.97
2018-09-17T10:17:49.340Z,47.08
2018-09-17T10:20:17.638Z,46.38
2018-09-17T10:22:45.959Z,45.48
2018-09-17T10:25:14.311Z,47.29
2018-09-17T10:27:42.631Z,47.80
2018-09-17T10:30:10.977Z,46.38
2018-09-17T10:32:39.301Z,46.17
2018-09-17T10:35:07.614Z,44.76
2018-09-17T10:37:35.906Z,46.21
2018-09-17T10:40:04.314Z,45.09
2018-09-17T10:42:32.639Z,45.20
2018-09-17T10:45:00.955Z,44.58
2018-09-17T10:47:29.277Z,42.82
2018-09-17T10:49:57.606Z,41.99
2018-09-17T10:52:25.935Z,43.92
2018-09-17T10:54:54.246Z,43.55
2018-09-17T10:57:22.713Z,43.94
2018-09-17T10:59:51.038Z,43.72
2018-09-17T11:02:19.387Z,44.20
2018-09-17T11:04:47.669Z,42.57
2018-09-17T11:07:16.033Z,43.16
2018-09-17T11:09:44.402Z,43.66
2018-09-17T11:12:12.729Z,41.63
2018-09-17T11:14:41.051Z,42.57
2018-09-17T11:17:09.362Z,41.95
2018-09-17T11:19:37.648Z,39.93
2018-09-17T11:22:06.110Z,40.42
2018-09-17T11:24:34.439Z,40.02
2018-09-17T11:27:02.835Z,40.04
2018-09-17T11:29:31.156Z,39.68
2018-09-17T11:31:59.485Z,40.31
2018-09-17T11:34:27.790Z,41.10
2018-09-17T11:36:56.091Z,42.33
2018-09-17T11:39:24.441Z,43.00
2018-09-17T11:41:52.754Z,42.67
2018-09-17T11:44:21.046Z,43.25
2018-09-17T11:46:49.359Z,41.92
2018-09-17T11:49:17.695Z,42.64
2018-09-17T11:51:45.970Z,39.86
2018-09-17T11:54:14.287Z,41.48
2018-09-17T11:56:42.597Z,41.49
2018-09-17T11:59:10.877Z,41.24
2018-09-17T12:01:44.671Z,41.03
2018-09-17T12:04:14.482Z,41.95
2018-09-17T12:06:48.277Z,40.74
2018-09-17T12:09:16.657Z,41.33
2018-09-17T12:11:45.144Z,40.95
2018-09-17T12:14:13.465Z,39.74
2018-09-17T12:16:41.770Z,40.12
2018-09-17T12:19:10.055Z,38.52
2018-09-17T12:21:38.453Z,37.96
2018-09-17T12:24:06.755Z,37.94
2018-09-17T12:26:35.203Z,40.12
2018-09-17T12:29:03.514Z,38.42
2018-09-17T12:31:31.844Z,37.98
2018-09-17T12:34:00.333Z,38.60
2018-09-17T12:36:28.755Z,38.50
2018-09-17T12:38:57.102Z,39.15
2018-09-17T12:41:25.379Z,38.06
2018-09-17T12:43:53.691Z,39.02
2018-09-17T12:46:22.036Z,37.83
2018-09-17T12:48:50.438Z,38.78
2018-09-17T12:51:18.774Z,38.49
2018-09-17T12:53:47.946Z,39.06
2018-09-17T12:56:16.290Z,39.13
2018-09-17T12:58:44.779Z,36.74
2018-09-17T13:01:13.151Z,39.06
2018-09-17T13:03:41.514Z,36.52
2018-09-17T13:06:09.882Z,36.75
2018-09-17T13:08:38.271Z,37.26
2018-09-17T13:11:06.701Z,38.28
2018-09-17T13:13:38.044Z,38.87
2018-09-17T13:16:07.050Z,38.48
2018-09-17T13:18:35.435Z,38.84
2018-09-17T13:21:03.886Z,38.78
2018-09-17T13:23:32.206Z,38.53
2018-09-17T13:26:00.641Z,38.68
2018-09-17T13:28:28.956Z,39.10
2018-09-17T13:30:57.350Z,39.96
2018-09-17T13:33:25.645Z,40.02
2018-09-17T13:35:53.954Z,39.85
2018-09-17T13:38:22.276Z,40.22
2018-09-17T13:40:50.898Z,40.47
2018-09-17T13:43:19.478Z,40.28
2018-09-17T13:45:48.070Z,39.76
2018-09-17T13:48:16.361Z,39.38
2018-09-17T13:50:45.026Z,37.00
2018-09-17T13:53:13.454Z,38.67
2018-09-17T13:55:42.326Z,39.09
2018-09-17T13:58:12.111Z,36.27
2018-09-17T14:00:41.391Z,38.46
2018-09-17T14:03:09.691Z,37.64
2018-09-17T14:05:38.015Z,38.31
2018-09-17T14:08:06.486Z,37.95
2018-09-17T14:10:34.876Z,39.24
2018-09-17T14:13:03.180Z,37.84
2018-09-17T14:15:31.502Z,36.77
2018-09-17T14:17:59.846Z,36.70
2018-09-17T14:20:28.179Z,36.41
2018-09-17T14:22:56.479Z,35.35
2018-09-17T14:25:25.055Z,34.93
2018-09-17T14:27:53.389Z,35.83
2018-09-17T14:30:21.778Z,35.92
2018-09-17T14:32:55.251Z,35.55
2018-09-17T14:35:23.582Z,34.66
2018-09-17T14:37:51.895Z,36.22
2018-09-17T14:40:20.283Z,36.48
2018-09-17T14:42:48.620Z,36.82
2018-09-17T14:45:17.010Z,35.96
2018-09-17T14:47:45.507Z,34.88
2018-09-17T14:50:13.816Z,34.39
2018-09-17T14:52:42.093Z,35.16
2018-09-17T14:55:10.415Z,32.84
2018-09-17T14:57:38.834Z,34.20
2018-09-17T15:00:07.283Z,35.35
2018-09-17T15:02:35.627Z,36.63
2018-09-17T15:05:04.022Z,36.09
2018-09-17T15:07:32.458Z,36.23
2018-09-17T15:10:00.838Z,34.93
2018-09-17T15:12:29.872Z,35.42
2018-09-17T15:14:58.262Z,37.20
2018-09-17T15:17:26.498Z,36.30
2018-09-17T15:19:54.835Z,36.86
2018-09-17T15:22:23.225Z,36.75
2018-09-17T15:24:51.588Z,36.17
2018-09-17T15:27:20.253Z,36.39
2018-09-17T15:29:48.560Z,36.76
2018-09-17T15:32:16.976Z,37.44
2018-09-17T15:34:45.234Z,38.33
2018-09-17T15:37:13.575Z,37.55
2018-09-17T15:39:41.970Z,37.71
2018-09-17T15:42:12.131Z,37.29
2018-09-17T15:44:40.900Z,36.97
2018-09-17T15:47:09.181Z,35.57
2018-09-17T15:49:37.477Z,36.40
2018-09-17T15:52:06.324Z,36.34
2018-09-17T15:54:34.626Z,37.42
2018-09-17T15:57:03.360Z,36.50
2018-09-17T15:59:31.782Z,37.58
2018-09-17T16:02:00.138Z,37.00
2018-09-17T16:04:28.533Z,37.80
2018-09-17T16:06:57.770Z,37.68
2018-09-17T16:09:26.278Z,38.60
2018-09-17T16:11:55.432Z,38.20
2018-09-17T16:14:23.707Z,38.26
2018-09-17T16:16:52.311Z,39.58
2018-09-17T16:19:20.887Z,39.38
2018-09-17T16:21:49.339Z,40.46
2018-09-17T16:24:17.762Z,39.76
2018-09-17T16:26:46.067Z,40.07
2018-09-17T16:29:14.415Z,40.49
2018-09-17T16:31:42.733Z,40.70
2018-09-17T16:34:11.159Z,41.14
2018-09-17T16:36:40.707Z,41.46
2018-09-17T16:39:10.329Z,41.42
2018-09-17T16:41:38.802Z,41.80
2018-09-17T16:44:09.449Z,41.11
2018-09-17T16:46:37.741Z,42.21
2018-09-17T16:49:06.121Z,43.29
2018-09-17T16:51:34.438Z,43.54
2018-09-17T16:54:02.791Z,44.05
2018-09-17T16:56:31.123Z,44.31
2018-09-17T16:58:59.561Z,44.47
2018-09-17T17:01:27.873Z,44.88
2018-09-17T17:03:56.278Z,46.43
2018-09-17T17:06:25.056Z,46.05
2018-09-17T17:08:54.179Z,47.44
2018-09-17T17:11:22.618Z,48.22
2018-09-17T17:13:50.927Z,50.39
2018-09-17T17:16:19.369Z,49.59
2018-09-17T17:18:47.833Z,50.26
2018-09-17T17:21:16.213Z,51.29
2018-09-17T17:23:44.591Z,51.85
2018-09-17T17:26:13.055Z,52.85
2018-09-17T17:28:42.126Z,52.28
2018-09-17T17:31:10.516Z,53.20
2018-09-17T17:33:39.314Z,53.53
2018-09-17T17:36:07.723Z,55.30
2018-09-17T17:38:36.817Z,54.84
2018-09-17T17:41:06.272Z,55.15
2018-09-17T17:44:05.824Z,54.30
2018-09-17T17:46:35.039Z,56.67
2018-09-17T17:49:03.761Z,55.67
2018-09-17T17:51:33.071Z,56.36
2018-09-17T17:54:01.831Z,55.92
2018-09-17T17:56:31.258Z,56.32
2018-09-17T17:59:00.804Z,57.31
2018-09-17T18:01:29.550Z,57.77
2018-09-17T18:03:59.155Z,57.33
2018-09-17T18:06:28.025Z,57.26
2018-09-17T18:08:57.040Z,58.13
2018-09-17T18:11:26.088Z,58.46
2018-09-17T18:13:55.357Z,58.51
2018-09-17T18:16:29.793Z,58.62
2018-09-17T18:18:59.165Z,58.63
2018-09-17T18:21:28.321Z,59.43
2018-09-17T18:23:57.541Z,59.16
2018-09-17T18:26:26.782Z,58.65
2018-09-17T18:28:55.255Z,58.43
2018-09-17T18:31:23.648Z,58.83
2018-09-17T18:33:53.885Z,59.33
2018-09-17T18:36:22.910Z,59.78
2018-09-17T18:38:51.862Z,60.04
2018-09-17T18:41:21.929Z,60.03
2018-09-17T18:43:50.811Z,60.30
2018-09-17T18:46:19.582Z,59.50
2018-09-17T18:48:48.019Z,60.33
2018-09-17T18:51:17.107Z,60.38
2018-09-17T18:53:46.146Z,60.71
2018-09-17T18:56:15.341Z,59.92
2018-09-17T18:58:44.736Z,60.04
2018-09-17T19:01:13.465Z,59.80
2018-09-17T19:03:42.486Z,61.20
2018-09-17T19:06:12.307Z,61.24
2018-09-17T19:08:41.116Z,61.69
2018-09-17T19:11:09.842Z,61.85
2018-09-17T19:13:38.272Z,62.26
2018-09-17T19:16:07.414Z,62.12
2018-09-17T19:18:35.907Z,61.83
2018-09-17T19:21:04.873Z,63.67
2018-09-17T19:23:38.880Z,61.68
2018-09-17T19:26:07.843Z,61.68
2018-09-17T19:28:41.801Z,62.07
2018-09-17T19:31:10.392Z,61.53
2018-09-17T19:33:40.042Z,61.15
2018-09-17T19:36:10.365Z,61.59
2018-09-17T19:38:44.896Z,61.41
2018-09-17T19:41:13.617Z,61.86
2018-09-17T19:43:42.400Z,62.32
2018-09-17T19:46:17.037Z,62.90
2018-09-17T19:48:46.011Z,63.09
2018-09-17T19:51:20.677Z,62.89
2018-09-17T19:53:49.581Z,63.03
2018-09-17T19:56:20.564Z,63.14
2018-09-17T19:58:54.124Z,63.32
2018-09-17T20:01:22.694Z,64.17
2018-09-17T20:03:51.039Z,63.15
2018-09-17T20:06:27.321Z,63.60
2018-09-17T20:08:55.850Z,64.00
2018-09-17T20:11:24.316Z,64.47
2018-09-17T20:13:52.798Z,63.50
2018-09-17T20:16:21.355Z,64.31
2018-09-17T20:18:49.848Z,64.14
2018-09-17T20:21:18.231Z,64.37
2018-09-17T20:23:47.384Z,64.52
2018-09-17T20:26:15.919Z,64.95
2018-09-17T20:28:44.244Z,65.19
2018-09-17T20:31:12.710Z,64.80
2018-09-17T20:33:41.087Z,65.13
2018-09-17T20:36:09.499Z,64.53
2018-09-17T20:38:38.161Z,64.65
2018-09-17T20:41:06.572Z,65.78
2018-09-17T20:43:34.966Z,65.22
2018-09-17T20:46:03.330Z,64.18
2018-09-17T20:48:32.120Z,64.59
2018-09-17T20:51:00.502Z,66.19
2018-09-17T20:53:29.330Z,66.84
2018-09-17T20:55:58.379Z,65.17
2018-09-17T20:58:26.825Z,65.33
2018-09-17T21:00:55.285Z,66.26
2018-09-17T21:03:23.842Z,66.02
2018-09-17T21:05:52.402Z,66.58
2018-09-17T21:08:20.726Z,67.22
2018-09-17T21:10:49.643Z,67.03
2018-09-17T21:13:18.067Z,67.73
2018-09-17T21:15:46.411Z,67.74
2018-09-17T21:18:15.819Z,66.41
2018-09-17T21:20:44.116Z,66.77
2018-09-17T21:23:12.449Z,67.15
2018-09-17T21:25:40.749Z,67.69
2018-09-17T21:28:09.074Z,66.51
2018-09-17T21:30:37.428Z,67.11
2018-09-17T21:33:05.963Z,67.98
2018-09-17T21:35:34.253Z,68.10
2018-09-17T21:38:02.574Z,68.25
2018-09-17T21:40:30.881Z,67.93
2018-09-17T21:42:59.498Z,68.57
2018-09-17T21:45:27.683Z,68.90
2018-09-17T21:47:55.998Z,68.22
2018-09-17T21:50:24.662Z,68.24
2018-09-17T21:52:53.065Z,68.36
2018-09-17T21:55:21.376Z,68.76
2018-09-17T21:57:49.675Z,68.95
2018-09-17T22:00:18.015Z,68.70
2018-09-17T22:02:46.355Z,68.76
2018-09-17T22:05:14.641Z,69.34
2018-09-17T22:07:43.123Z,68.72
2018-09-17T22:10:11.491Z,69.37
2018-09-17T22:12:39.853Z,69.24
2018-09-17T22:15:08.329Z,69.33
2018-09-17T22:17:36.691Z,70.47
2018-09-17T22:20:05.091Z,70.81
2018-09-17T22:22:33.467Z,70.82
2018-09-17T22:25:01.814Z,70.27
2018-09-17T22:27:30.166Z,70.83
2018-09-17T22:29:58.491Z,70.76
2018-09-17T22:32:26.821Z,70.97
2018-09-17T22:34:55.187Z,70.14
2018-09-17T22:37:23.502Z,70.98
2018-09-17T22:39:51.781Z,70.33
2018-09-17T22:42:20.272Z,70.86
2018-09-17T22:44:48.493Z,70.63
2018-09-17T22:47:16.834Z,71.17
2018-09-17T22:49:45.132Z,70.74
2018-09-17T22:52:13.452Z,70.80
2018-09-17T22:54:41.796Z,71.50
2018-09-17T22:57:10.121Z,71.67
2018-09-17T22:59:38.422Z,71.02
2018-09-17T23:02:06.907Z,71.84
2018-09-17T23:04:35.258Z,72.76
2018-09-17T23:07:03.564Z,72.30
2018-09-17T23:09:31.871Z,71.88
2018-09-17T23:12:00.160Z,72.34
2018-09-17T23:14:28.498Z,72.31
2018-09-17T23:16:56.812Z,72.30
2018-09-17T23:19:25.134Z,72.55
2018-09-17T23:21:53.437Z,73.14
2018-09-17T23:24:21.752Z,72.52
2018-09-17T23:26:50.052Z,72.98
2018-09-17T23:29:18.410Z,72.40
2018-09-17T23:31:46.729Z,73.17
2018-09-17T23:34:15.033Z,72.80
2018-09-17T23:36:43.390Z,72.69
2018-09-17T23:39:12.456Z,73.27
2018-09-17T23:41:41.129Z,72.94
2018-09-17T23:44:09.527Z,73.06
2018-09-17T23:46:37.882Z,73.32
2018-09-17T23:49:06.366Z,73.13
2018-09-17T23:51:34.745Z,73.38
2018-09-17T23:54:03.125Z,73.16
2018-09-17T23:56:31.506Z,73.22
2018-09-17T23:58:59.910Z,72.57
